Time,TemperatureF,DewpointF,PressureIn,WindDirection,WindDirectionDegrees,WindSpeedMPH,WindSpeedGustMPH,Humidity,HourlyPrecipIn,Conditions,Clouds,dailyrainin,SoftwareType,DateUTC
2013-03-26 00:03:00,50.4,43.1,29.93,North,0,0.0,0.0,76,0.00,,,0.00,WUHU216HW,2013-03-26 07:03:00,
2013-03-26 00:08:00,50.4,43.1,29.93,North,0,0.0,0.0,76,0.00,,,0.00,WUHU216HW,2013-03-26 07:08:00,
2013-03-26 00:13:00,50.0,44.1,29.93,NE,45,0.2,0.2,80,0.00,,,0.00,WUHU216HW,2013-03-26 07:13:00,
2013-03-26 00:18:00,50.0,44.4,29.92,North,0,0.0,0.0,81,0.00,,,0.00,WUHU216HW,2013-03-26 07:18:00,
2013-03-26 00:23:00,49.9,43.9,29.93,NW,326,0.6,0.9,80,0.00,,,0.00,WUHU216HW,2013-03-26 07:23:00,
2013-03-26 00:28:00,49.9,43.9,29.93,North,0,0.3,0.4,80,0.00,,,0.00,WUHU216HW,2013-03-26 07:28:00,
2013-03-26 00:33:00,49.9,43.6,29.92,North,0,0.0,0.0,79,0.00,,,0.00,WUHU216HW,2013-03-26 07:33:00,
2013-03-26 00:38:00,49.7,43.4,29.92,NNW,338,0.2,0.2,79,0.00,,,0.00,WUHU216HW,2013-03-26 07:38:00,
2013-03-26 00:43:00,49.7,43.4,29.92,North,0,0.0,0.0,79,0.00,,,0.00,WUHU216HW,2013-03-26 07:43:00,
2013-03-26 00:48:00,49.7,43.4,29.92,North,0,0.0,0.0,79,0.00,,,0.00,WUHU216HW,2013-03-26 07:48:00,
2013-03-26 00:53:00,49.5,43.2,29.92,North,0,0.0,0.0,79,0.00,,,0.00,WUHU216HW,2013-03-26 07:53:00,
2013-03-26 00:58:00,49.5,43.2,29.92,West,270,0.4,0.4,79,0.00,,,0.00,WUHU216HW,2013-03-26 07:58:00,
2013-03-26 01:03:00,49.5,43.2,29.92,West,270,0.3,0.7,79,0.00,,,0.00,WUHU216HW,2013-03-26 08:03:00,
2013-03-26 01:08:00,49.3,43.0,29.92,North,0,0.0,0.0,79,0.00,,,0.00,WUHU216HW,2013-03-26 08:08:00,
2013-03-26 01:13:00,49.3,43.0,29.92,North,0,0.0,0.0,79,0.00,,,0.00,WUHU216HW,2013-03-26 08:13:00,
2013-03-26 01:18:00,49.0,42.7,29.92,North,354,0.2,0.2,79,0.00,,,0.00,WUHU216HW,2013-03-26 08:18:00,
2013-03-26 01:23:00,49.0,42.7,29.93,NNW,338,0.2,0.2,79,0.00,,,0.00,WUHU216HW,2013-03-26 08:23:00,
2013-03-26 01:28:00,49.0,43.0,29.93,North,0,0.0,0.0,80,0.00,,,0.00,WUHU216HW,2013-03-26 08:28:00,
2013-03-26 01:33:00,49.0,42.7,29.93,North,0,0.0,0.0,79,0.00,,,0.00,WUHU216HW,2013-03-26 08:33:00,
2013-03-26 01:38:00,49.1,42.8,29.93,North,0,0.0,0.0,79,0.00,,,0.00,WUHU216HW,2013-03-26 08:38:00,
2013-03-26 01:43:00,49.0,43.0,29.93,North,0,0.0,0.0,80,0.00,,,0.00,WUHU216HW,2013-03-26 08:43:00,
2013-03-26 01:48:00,49.0,43.0,29.93,SSE,158,0.4,0.4,80,0.00,,,0.00,WUHU216HW,2013-03-26 08:48:00,
2013-03-26 01:53:00,48.6,43.0,29.93,SSE,162,0.6,1.1,81,0.00,,,0.00,WUHU216HW,2013-03-26 08:53:00,
2013-03-26 01:58:00,48.4,42.9,29.94,North,0,0.0,0.0,81,0.00,,,0.00,WUHU216HW,2013-03-26 08:58:00,
2013-03-26 02:03:00,48.2,42.3,29.94,North,0,0.0,0.0,80,0.00,,,0.00,WUHU216HW,2013-03-26 09:03:00,
2013-03-26 02:08:00,48.6,43.3,29.94,NNW,327,0.4,0.7,82,0.00,,,0.00,WUHU216HW,2013-03-26 09:08:00,
2013-03-26 02:13:00,48.6,43.9,29.94,NE,43,0.6,0.9,84,0.00,,,0.00,WUHU216HW,2013-03-26 09:13:00,
2013-03-26 02:18:00,48.2,43.6,29.94,NE,35,0.8,1.8,84,0.00,,,0.00,WUHU216HW,2013-03-26 09:18:00,
2013-03-26 02:23:00,47.9,42.9,29.94,NE,41,0.3,0.4,83,0.00,,,0.00,WUHU216HW,2013-03-26 09:23:00,
2013-03-26 02:28:00,47.9,42.3,29.93,ENE,68,0.2,0.2,81,0.00,,,0.00,WUHU216HW,2013-03-26 09:28:00,
2013-03-26 02:33:00,47.7,42.8,29.93,ENE,68,0.2,0.2,83,0.00,,,0.00,WUHU216HW,2013-03-26 09:33:00,
2013-03-26 02:38:00,47.5,42.3,29.93,North,0,0.0,0.0,82,0.00,,,0.00,WUHU216HW,2013-03-26 09:38:00,
2013-03-26 02:43:00,47.3,42.1,29.93,North,0,0.0,0.0,82,0.00,,,0.00,WUHU216HW,2013-03-26 09:43:00,
2013-03-26 02:48:00,47.2,41.9,29.93,North,0,0.0,0.0,82,0.00,,,0.00,WUHU216HW,2013-03-26 09:48:00,
2013-03-26 02:53:00,47.2,42.3,29.92,North,0,0.0,0.0,83,0.00,,,0.00,WUHU216HW,2013-03-26 09:53:00,
2013-03-26 02:58:00,47.5,42.3,29.92,SE,135,0.2,0.2,82,0.00,,,0.00,WUHU216HW,2013-03-26 09:58:00,
2013-03-26 03:03:00,47.5,41.9,29.92,North,0,0.0,0.0,81,0.00,,,0.00,WUHU216HW,2013-03-26 10:03:00,
2013-03-26 03:08:00,47.2,41.9,29.92,North,0,0.0,0.0,82,0.00,,,0.00,WUHU216HW,2013-03-26 10:08:00,
2013-03-26 03:13:00,47.2,41.7,29.92,North,0,0.0,0.0,81,0.00,,,0.00,WUHU216HW,2013-03-26 10:13:00,
2013-03-26 03:18:00,47.0,41.8,29.92,North,0,0.0,0.0,82,0.00,,,0.00,WUHU216HW,2013-03-26 10:18:00,
2013-03-26 03:23:00,47.2,42.3,29.92,North,0,0.0,0.0,83,0.00,,,0.00,WUHU216HW,2013-03-26 10:23:00,
2013-03-26 03:28:00,47.2,41.9,29.92,North,0,0.0,0.0,82,0.00,,,0.00,WUHU216HW,2013-03-26 10:28:00,
2013-03-26 03:33:00,47.0,41.5,29.91,North,0,0.0,0.0,81,0.00,,,0.00,WUHU216HW,2013-03-26 10:33:00,
2013-03-26 03:38:00,46.8,41.3,29.91,North,0,0.2,0.2,81,0.00,,,0.00,WUHU216HW,2013-03-26 10:38:00,
2013-03-26 03:43:00,46.4,41.0,29.91,NW,315,0.6,0.7,81,0.00,,,0.00,WUHU216HW,2013-03-26 10:43:00,
2013-03-26 03:48:00,46.4,41.0,29.91,North,0,0.2,0.2,81,0.00,,,0.00,WUHU216HW,2013-03-26 10:48:00,
2013-03-26 03:53:00,46.1,40.6,29.91,North,0,0.0,0.0,81,0.00,,,0.00,WUHU216HW,2013-03-26 10:53:00,
2013-03-26 03:58:00,45.7,40.9,29.91,North,0,0.0,0.0,83,0.00,,,0.00,WUHU216HW,2013-03-26 10:58:00,
2013-03-26 04:03:00,45.7,40.9,29.90,North,0,0.0,0.0,83,0.00,,,0.00,WUHU216HW,2013-03-26 11:03:00,
2013-03-26 04:08:00,45.9,41.0,29.90,North,0,0.0,0.0,83,0.00,,,0.00,WUHU216HW,2013-03-26 11:08:00,
2013-03-26 04:14:00,45.7,40.6,29.90,North,0,0.0,0.0,82,0.00,,,0.00,WUHU216HW,2013-03-26 11:14:00,
2013-03-26 04:19:00,45.9,40.8,29.91,North,0,0.0,0.0,82,0.00,,,0.00,WUHU216HW,2013-03-26 11:19:00,
2013-03-26 04:24:00,46.1,41.0,29.90,North,0,0.0,0.0,82,0.00,,,0.00,WUHU216HW,2013-03-26 11:24:00,
2013-03-26 04:29:00,46.1,41.0,29.90,North,0,0.0,0.0,82,0.00,,,0.00,WUHU216HW,2013-03-26 11:29:00,
2013-03-26 04:34:00,46.3,41.4,29.90,North,0,0.0,0.0,83,0.00,,,0.00,WUHU216HW,2013-03-26 11:34:00,
2013-03-26 04:39:00,46.3,41.4,29.91,NNW,338,0.9,0.9,83,0.00,,,0.00,WUHU216HW,2013-03-26 11:39:00,
2013-03-26 04:44:00,45.9,41.0,29.90,NW,311,0.6,1.1,83,0.00,,,0.00,WUHU216HW,2013-03-26 11:44:00,
2013-03-26 04:49:00,45.7,40.6,29.91,NW,304,0.3,0.4,82,0.00,,,0.00,WUHU216HW,2013-03-26 11:49:00,
2013-03-26 04:54:00,45.5,40.7,29.90,North,0,0.0,0.0,83,0.00,,,0.00,WUHU216HW,2013-03-26 11:54:00,
2013-03-26 04:59:00,45.5,41.3,29.91,SSW,204,0.8,1.3,85,0.00,,,0.00,WUHU216HW,2013-03-26 11:59:00,
2013-03-26 05:04:00,45.5,41.3,29.91,SSE,160,0.6,1.1,85,0.00,,,0.00,WUHU216HW,2013-03-26 12:04:00,
2013-03-26 05:09:00,45.5,41.1,29.91,WSW,254,0.5,0.7,84,0.00,,,0.00,WUHU216HW,2013-03-26 12:09:00,
2013-03-26 05:14:00,45.5,41.1,29.91,NW,310,0.5,0.7,84,0.00,,,0.00,WUHU216HW,2013-03-26 12:14:00,
2013-03-26 05:19:00,45.5,40.7,29.91,North,0,0.0,0.0,83,0.00,,,0.00,WUHU216HW,2013-03-26 12:19:00,
2013-03-26 05:24:00,45.5,40.7,29.91,North,0,0.0,0.0,83,0.00,,,0.00,WUHU216HW,2013-03-26 12:24:00,
2013-03-26 05:29:00,45.4,40.5,29.91,NNW,338,0.2,0.2,83,0.00,,,0.00,WUHU216HW,2013-03-26 12:29:00,
2013-03-26 05:34:00,45.2,40.3,29.92,North,0,0.0,0.0,83,0.00,,,0.00,WUHU216HW,2013-03-26 12:34:00,
2013-03-26 05:39:00,44.8,40.0,29.91,North,0,0.0,0.0,83,0.00,,,0.00,WUHU216HW,2013-03-26 12:39:00,
2013-03-26 05:44:00,44.6,40.2,29.91,ENE,72,0.3,0.4,84,0.00,,,0.00,WUHU216HW,2013-03-26 12:44:00,
2013-03-26 05:49:00,44.5,40.0,29.91,ENE,68,0.5,0.7,84,0.00,,,0.00,WUHU216HW,2013-03-26 12:49:00,
2013-03-26 05:54:00,44.5,39.6,29.92,ENE,68,0.7,0.7,83,0.00,,,0.00,WUHU216HW,2013-03-26 12:54:00,
2013-03-26 05:59:00,44.3,39.4,29.92,North,0,0.0,0.0,83,0.00,,,0.00,WUHU216HW,2013-03-26 12:59:00,
2013-03-26 06:04:00,44.1,39.6,29.92,North,0,0.0,0.0,84,0.00,,,0.00,WUHU216HW,2013-03-26 13:04:00,
2013-03-26 06:09:00,43.9,39.4,29.92,North,0,0.0,0.0,84,0.00,,,0.00,WUHU216HW,2013-03-26 13:09:00,
2013-03-26 06:14:00,43.7,39.3,29.92,North,0,0.0,0.0,84,0.00,,,0.00,WUHU216HW,2013-03-26 13:14:00,
2013-03-26 06:19:00,43.6,39.1,29.92,West,270,0.4,0.4,84,0.00,,,0.00,WUHU216HW,2013-03-26 13:19:00,
2013-03-26 06:24:00,43.6,39.3,29.92,West,270,0.3,0.4,85,0.00,,,0.00,WUHU216HW,2013-03-26 13:24:00,
2013-03-26 06:29:00,43.6,39.3,29.92,North,0,0.0,0.0,85,0.00,,,0.00,WUHU216HW,2013-03-26 13:29:00,
2013-03-26 06:34:00,43.6,39.3,29.92,North,0,0.0,0.0,85,0.00,,,0.00,WUHU216HW,2013-03-26 13:34:00,
2013-03-26 06:39:00,43.6,39.3,29.93,North,0,0.0,0.0,85,0.00,,,0.00,WUHU216HW,2013-03-26 13:39:00,
2013-03-26 06:44:00,43.6,39.3,29.93,North,0,0.0,0.0,85,0.00,,,0.00,WUHU216HW,2013-03-26 13:44:00,
2013-03-26 06:49:00,43.6,39.3,29.93,North,0,0.0,0.0,85,0.00,,,0.00,WUHU216HW,2013-03-26 13:49:00,
2013-03-26 06:54:00,43.6,39.3,29.93,SE,124,0.2,0.2,85,0.00,,,0.00,WUHU216HW,2013-03-26 13:54:00,
2013-03-26 06:59:00,43.6,39.3,29.93,North,0,0.0,0.0,85,0.00,,,0.00,WUHU216HW,2013-03-26 13:59:00,
2013-03-26 07:04:00,43.6,39.3,29.94,North,0,0.0,0.0,85,0.00,,,0.00,WUHU216HW,2013-03-26 14:04:00,
2013-03-26 07:09:00,43.6,39.3,29.94,North,0,0.0,0.0,85,0.00,,,0.00,WUHU216HW,2013-03-26 14:09:00,
2013-03-26 07:14:00,43.6,39.3,29.94,North,0,0.0,0.0,85,0.00,,,0.00,WUHU216HW,2013-03-26 14:14:00,
2013-03-26 07:19:00,43.6,39.3,29.94,North,0,0.0,0.0,85,0.00,,,0.00,WUHU216HW,2013-03-26 14:19:00,
2013-03-26 07:24:00,43.7,39.5,29.94,North,0,0.0,0.0,85,0.00,,,0.00,WUHU216HW,2013-03-26 14:24:00,
2013-03-26 07:29:00,44.1,39.9,29.95,North,0,0.0,0.0,85,0.00,,,0.00,WUHU216HW,2013-03-26 14:29:00,
2013-03-26 07:34:00,44.5,40.2,29.95,North,0,0.0,0.0,85,0.00,,,0.00,WUHU216HW,2013-03-26 14:34:00,
2013-03-26 07:39:00,45.0,40.8,29.95,North,0,0.0,0.0,85,0.00,,,0.00,WUHU216HW,2013-03-26 14:39:00,
2013-03-26 07:44:00,45.7,41.5,29.95,North,0,0.0,0.0,85,0.00,,,0.00,WUHU216HW,2013-03-26 14:44:00,
2013-03-26 07:49:00,46.3,42.7,29.95,East,87,0.4,1.1,87,0.00,,,0.00,WUHU216HW,2013-03-26 14:49:00,
2013-03-26 07:54:00,47.0,43.0,29.95,ESE,107,0.3,0.4,86,0.00,,,0.00,WUHU216HW,2013-03-26 14:54:00,
2013-03-26 07:59:00,47.5,43.2,29.95,SE,125,0.2,0.4,85,0.00,,,0.00,WUHU216HW,2013-03-26 14:59:00,
2013-03-26 08:04:00,48.1,43.7,29.95,East,98,0.3,0.4,85,0.00,,,0.00,WUHU216HW,2013-03-26 15:04:00,
2013-03-26 08:09:00,49.0,44.3,29.95,ESE,118,0.4,0.9,84,0.00,,,0.00,WUHU216HW,2013-03-26 15:09:00,
2013-03-26 08:14:00,49.7,45.0,29.95,East,88,0.5,0.9,84,0.00,,,0.00,WUHU216HW,2013-03-26 15:14:00,
2013-03-26 08:19:00,50.6,45.5,29.95,ESE,113,0.6,1.1,83,0.00,,,0.00,WUHU216HW,2013-03-26 15:19:00,
2013-03-26 08:24:00,51.5,45.8,29.95,SE,134,0.9,2.5,81,0.00,,,0.00,WUHU216HW,2013-03-26 15:24:00,
2013-03-26 08:29:00,52.4,46.1,29.95,ESE,123,1.1,2.0,79,0.00,,,0.00,WUHU216HW,2013-03-26 15:29:00,
2013-03-26 08:34:00,53.1,46.4,29.95,SE,136,1.2,1.8,78,0.00,,,0.00,WUHU216HW,2013-03-26 15:34:00,
2013-03-26 08:39:00,53.6,47.0,29.95,SSE,160,1.3,2.5,78,0.00,,,0.00,WUHU216HW,2013-03-26 15:39:00,
2013-03-26 08:44:00,54.4,47.3,29.95,SSE,151,1.6,2.7,77,0.00,,,0.00,WUHU216HW,2013-03-26 15:44:00,
2013-03-26 08:49:00,55.1,47.3,29.95,SE,143,1.8,2.5,75,0.00,,,0.00,WUHU216HW,2013-03-26 15:49:00,
2013-03-26 08:54:00,55.6,46.7,29.96,SE,146,2.1,3.1,72,0.00,,,0.00,WUHU216HW,2013-03-26 15:54:00,
2013-03-26 08:59:00,56.2,47.6,29.96,SE,141,1.8,3.1,73,0.00,,,0.00,WUHU216HW,2013-03-26 15:59:00,
2013-03-26 09:04:00,56.9,47.9,29.96,SSE,162,1.9,2.7,72,0.00,,,0.00,WUHU216HW,2013-03-26 16:04:00,
2013-03-26 09:09:00,57.6,47.5,29.96,South,173,2.2,3.6,69,0.00,,,0.00,WUHU216HW,2013-03-26 16:09:00,
2013-03-26 09:14:00,58.1,48.0,29.96,SSE,156,1.8,2.7,69,0.00,,,0.00,WUHU216HW,2013-03-26 16:14:00,
2013-03-26 09:19:00,58.5,48.0,29.96,SSW,194,2.1,3.4,68,0.00,,,0.00,WUHU216HW,2013-03-26 16:19:00,
2013-03-26 09:24:00,59.0,48.1,29.97,SE,145,1.4,2.5,67,0.00,,,0.00,WUHU216HW,2013-03-26 16:24:00,
2013-03-26 09:29:00,59.4,47.2,29.97,SE,143,1.8,2.9,64,0.00,,,0.00,WUHU216HW,2013-03-26 16:29:00,
2013-03-26 09:34:00,59.8,47.5,29.97,SE,127,1.4,2.5,64,0.00,,,0.00,WUHU216HW,2013-03-26 16:34:00,
2013-03-26 09:39:00,60.3,49.0,29.96,South,188,1.5,2.5,66,0.00,,,0.00,WUHU216HW,2013-03-26 16:39:00,
2013-03-26 09:44:00,60.8,49.1,29.96,South,185,2.0,2.9,65,0.00,,,0.00,WUHU216HW,2013-03-26 16:44:00,
2013-03-26 09:49:00,61.6,49.3,29.96,South,177,1.7,3.1,64,0.00,,,0.00,WUHU216HW,2013-03-26 16:49:00,
2013-03-26 09:54:00,62.1,48.5,29.96,SE,140,1.8,4.0,61,0.00,,,0.00,WUHU216HW,2013-03-26 16:54:00,
2013-03-26 09:59:00,62.6,48.6,29.96,SSE,165,2.6,4.5,60,0.00,,,0.00,WUHU216HW,2013-03-26 16:59:00,
2013-03-26 10:04:00,63.2,49.5,29.97,SSW,199,2.6,4.0,61,0.00,,,0.00,WUHU216HW,2013-03-26 17:04:00,
2013-03-26 10:09:00,63.7,49.6,29.97,South,183,2.2,4.0,60,0.00,,,0.00,WUHU216HW,2013-03-26 17:09:00,
2013-03-26 10:14:00,64.3,49.1,29.97,South,176,3.0,4.3,58,0.00,,,0.00,WUHU216HW,2013-03-26 17:14:00,
2013-03-26 10:19:00,64.8,49.2,29.97,South,177,3.6,5.1,57,0.00,,,0.00,WUHU216HW,2013-03-26 17:19:00,
2013-03-26 10:24:00,65.0,47.3,29.97,SSE,148,3.2,4.9,53,0.00,,,0.00,WUHU216HW,2013-03-26 17:24:00,
2013-03-26 10:29:00,65.5,48.4,29.97,SSW,193,2.4,4.0,54,0.00,,,0.00,WUHU216HW,2013-03-26 17:29:00,
2013-03-26 10:34:00,65.9,48.8,29.97,South,178,3.0,4.7,54,0.00,,,0.00,WUHU216HW,2013-03-26 17:34:00,
2013-03-26 10:39:00,66.2,48.6,29.97,South,187,3.5,5.4,53,0.00,,,0.00,WUHU216HW,2013-03-26 17:39:00,
2013-03-26 10:44:00,66.2,48.2,29.96,SE,146,3.6,5.4,52,0.00,,,0.00,WUHU216HW,2013-03-26 17:44:00,
2013-03-26 10:49:00,66.6,48.4,29.97,South,175,3.8,5.8,52,0.00,,,0.00,WUHU216HW,2013-03-26 17:49:00,
2013-03-26 10:54:00,66.8,49.2,29.96,SSW,200,3.0,4.5,53,0.00,,,0.00,WUHU216HW,2013-03-26 17:54:00,
2013-03-26 10:59:00,67.1,49.4,29.96,South,185,3.8,5.6,53,0.00,,,0.00,WUHU216HW,2013-03-26 17:59:00,
2013-03-26 11:04:00,67.3,49.6,29.96,SW,220,3.6,5.4,53,0.00,,,0.00,WUHU216HW,2013-03-26 18:04:00,
2013-03-26 11:09:00,67.7,49.0,29.97,South,176,4.0,6.3,51,0.00,,,0.00,WUHU216HW,2013-03-26 18:09:00,
2013-03-26 11:14:00,68.0,48.2,29.97,South,179,4.2,5.4,49,0.00,,,0.00,WUHU216HW,2013-03-26 18:14:00,
2013-03-26 11:19:00,68.0,48.8,29.97,SSE,161,3.1,4.7,50,0.00,,,0.00,WUHU216HW,2013-03-26 18:19:00,
2013-03-26 11:24:00,68.4,50.6,29.97,South,191,3.2,5.8,53,0.00,,,0.00,WUHU216HW,2013-03-26 18:24:00,
2013-03-26 11:29:00,68.4,50.0,29.97,SSW,202,3.1,4.5,52,0.00,,,0.00,WUHU216HW,2013-03-26 18:29:00,
2013-03-26 11:34:00,68.6,49.8,29.97,SSW,206,3.1,6.0,51,0.00,,,0.00,WUHU216HW,2013-03-26 18:34:00,
2013-03-26 11:39:00,68.4,50.6,29.97,South,189,3.4,4.9,53,0.00,,,0.00,WUHU216HW,2013-03-26 18:39:00,
2013-03-26 11:44:00,68.2,50.9,29.97,South,182,2.6,4.9,54,0.00,,,0.00,WUHU216HW,2013-03-26 18:44:00,
2013-03-26 11:49:00,68.4,51.0,29.97,SSW,212,3.4,5.4,54,0.00,,,0.00,WUHU216HW,2013-03-26 18:49:00,
2013-03-26 11:54:00,68.8,51.0,29.97,SSW,198,2.4,4.7,53,0.00,,,0.00,WUHU216HW,2013-03-26 18:54:00,
2013-03-26 11:59:00,68.9,51.1,29.97,South,184,2.8,5.6,53,0.00,,,0.00,WUHU216HW,2013-03-26 18:59:00,
2013-03-26 12:04:00,69.1,51.2,29.97,South,184,3.0,4.7,53,0.00,,,0.00,WUHU216HW,2013-03-26 19:04:00,
2013-03-26 12:09:00,69.5,51.1,29.97,South,190,3.4,4.5,52,0.00,,,0.00,WUHU216HW,2013-03-26 19:09:00,
2013-03-26 12:14:00,69.8,51.9,29.97,SSW,194,2.4,4.7,53,0.00,,,0.00,WUHU216HW,2013-03-26 19:14:00,
2013-03-26 12:19:00,70.2,52.2,29.97,South,179,3.0,4.7,53,0.00,,,0.00,WUHU216HW,2013-03-26 19:19:00,
2013-03-26 12:24:00,70.7,52.8,29.97,South,173,2.4,4.3,53,0.00,,,0.00,WUHU216HW,2013-03-26 19:24:00,
2013-03-26 12:29:00,70.7,52.8,29.96,South,178,3.6,4.9,53,0.00,,,0.00,WUHU216HW,2013-03-26 19:29:00,
2013-03-26 12:34:00,70.6,53.1,29.96,South,175,1.2,4.7,54,0.00,,,0.00,WUHU216HW,2013-03-26 19:34:00,
2013-03-26 12:39:00,70.7,52.8,29.96,SSW,212,2.5,4.7,53,0.00,,,0.00,WUHU216HW,2013-03-26 19:39:00,
2013-03-26 12:44:00,71.3,52.2,29.96,SSE,151,2.1,3.6,51,0.00,,,0.00,WUHU216HW,2013-03-26 19:44:00,
2013-03-26 12:49:00,71.6,52.6,29.96,SSW,199,2.5,4.7,51,0.00,,,0.00,WUHU216HW,2013-03-26 19:49:00,
2013-03-26 12:54:00,71.5,52.8,29.96,SSW,192,1.8,4.3,52,0.00,,,0.00,WUHU216HW,2013-03-26 19:54:00,
2013-03-26 12:59:00,71.6,53.0,29.95,West,267,2.4,3.4,52,0.00,,,0.00,WUHU216HW,2013-03-26 19:59:00,
2013-03-26 13:04:00,71.5,51.8,29.95,SSE,167,1.6,3.8,50,0.00,,,0.00,WUHU216HW,2013-03-26 20:04:00,
2013-03-26 13:09:00,71.5,52.4,29.95,WSW,243,1.6,4.0,51,0.00,,,0.00,WUHU216HW,2013-03-26 20:09:00,
2013-03-26 13:14:00,72.0,52.8,29.95,South,174,2.6,6.3,51,0.00,,,0.00,WUHU216HW,2013-03-26 20:14:00,
2013-03-26 13:19:00,72.4,52.7,29.95,SW,214,1.6,2.9,50,0.00,,,0.00,WUHU216HW,2013-03-26 20:19:00,
2013-03-26 13:24:00,72.9,52.6,29.95,South,169,1.7,4.0,49,0.00,,,0.00,WUHU216HW,2013-03-26 20:24:00,
2013-03-26 13:29:00,73.1,53.3,29.95,West,278,2.3,4.3,50,0.00,,,0.00,WUHU216HW,2013-03-26 20:29:00,
2013-03-26 13:34:00,73.1,52.8,29.95,SSW,208,2.3,4.0,49,0.00,,,0.00,WUHU216HW,2013-03-26 20:34:00,
2013-03-26 13:39:00,73.3,52.9,29.94,SSW,195,2.2,4.5,49,0.00,,,0.00,WUHU216HW,2013-03-26 20:39:00,
2013-03-26 13:44:00,73.6,53.2,29.94,WSW,238,2.8,4.9,49,0.00,,,0.00,WUHU216HW,2013-03-26 20:44:00,
2013-03-26 13:49:00,73.6,52.7,29.94,SSW,200,2.2,4.5,48,0.00,,,0.00,WUHU216HW,2013-03-26 20:49:00,
2013-03-26 13:54:00,73.1,50.9,29.94,SW,216,2.3,4.7,46,0.00,,,0.00,WUHU216HW,2013-03-26 20:54:00,
2013-03-26 13:59:00,72.0,51.1,29.94,SW,220,2.3,4.7,48,0.00,,,0.00,WUHU216HW,2013-03-26 20:59:00,
2013-03-26 14:04:00,71.5,52.4,29.95,South,183,2.2,3.6,51,0.00,,,0.00,WUHU216HW,2013-03-26 21:04:00,
2013-03-26 14:09:00,72.0,52.8,29.94,SSW,202,1.8,3.4,51,0.00,,,0.00,WUHU216HW,2013-03-26 21:09:00,
2013-03-26 14:14:00,72.7,53.5,29.94,WSW,252,2.3,3.1,51,0.00,,,0.00,WUHU216HW,2013-03-26 21:14:00,
2013-03-26 14:19:00,73.3,52.3,29.94,WNW,287,1.9,4.5,48,0.00,,,0.00,WUHU216HW,2013-03-26 21:19:00,
2013-03-26 14:24:00,73.1,52.1,29.94,WSW,247,1.9,4.0,48,0.00,,,0.00,WUHU216HW,2013-03-26 21:24:00,
2013-03-26 14:29:00,73.1,50.9,29.94,WSW,238,1.5,3.1,46,0.00,,,0.00,WUHU216HW,2013-03-26 21:29:00,
2013-03-26 14:34:00,73.4,51.8,29.93,South,183,2.1,3.4,47,0.00,,,0.00,WUHU216HW,2013-03-26 21:34:00,
2013-03-26 14:39:00,74.0,50.6,29.93,SSW,198,1.8,4.0,44,0.00,,,0.00,WUHU216HW,2013-03-26 21:39:00,
2013-03-26 14:44:00,74.0,51.8,29.92,SW,228,2.0,3.8,46,0.00,,,0.00,WUHU216HW,2013-03-26 21:44:00,
2013-03-26 14:49:00,74.3,51.6,29.92,WNW,285,2.7,5.8,45,0.00,,,0.00,WUHU216HW,2013-03-26 21:49:00,
2013-03-26 14:54:00,74.5,51.1,29.92,SW,220,1.8,2.7,44,0.00,,,0.00,WUHU216HW,2013-03-26 21:54:00,
2013-03-26 14:59:00,74.7,52.5,29.92,SW,230,1.6,4.0,46,0.00,,,0.00,WUHU216HW,2013-03-26 21:59:00,
2013-03-26 15:04:00,75.1,52.2,29.92,West,278,1.3,2.5,45,0.00,,,0.00,WUHU216HW,2013-03-26 22:04:00,
2013-03-26 15:09:00,75.6,52.1,29.91,SW,218,1.9,2.7,44,0.00,,,0.00,WUHU216HW,2013-03-26 22:09:00,
2013-03-26 15:14:00,75.8,51.7,29.91,West,262,1.7,4.7,43,0.00,,,0.00,WUHU216HW,2013-03-26 22:14:00,
2013-03-26 15:19:00,75.6,52.1,29.91,SW,224,1.5,4.7,44,0.00,,,0.00,WUHU216HW,2013-03-26 22:19:00,
2013-03-26 15:24:00,75.8,52.8,29.91,SSW,206,2.9,5.1,45,0.00,,,0.00,WUHU216HW,2013-03-26 22:24:00,
2013-03-26 15:29:00,76.0,52.4,29.91,SW,227,2.3,4.0,44,0.00,,,0.00,WUHU216HW,2013-03-26 22:29:00,
2013-03-26 15:34:00,76.0,51.9,29.90,West,273,2.7,5.4,43,0.00,,,0.00,WUHU216HW,2013-03-26 22:34:00,
2013-03-26 15:39:00,76.1,51.4,29.91,WNW,282,2.1,4.0,42,0.00,,,0.00,WUHU216HW,2013-03-26 22:39:00,
2013-03-26 15:45:00,76.0,50.6,29.90,West,281,2.3,4.9,41,0.00,,,0.00,WUHU216HW,2013-03-26 22:45:00,
2013-03-26 15:50:00,76.1,50.1,29.90,West,260,2.0,4.7,40,0.00,,,0.00,WUHU216HW,2013-03-26 22:50:00,
2013-03-26 15:55:00,76.0,49.2,29.90,WNW,291,2.4,4.0,39,0.00,,,0.00,WUHU216HW,2013-03-26 22:55:00,
2013-03-26 16:00:00,75.6,49.7,29.90,NNW,342,1.2,3.8,40,0.00,,,0.00,WUHU216HW,2013-03-26 23:00:00,
2013-03-26 16:05:00,75.6,50.2,29.90,WNW,303,1.8,3.8,41,0.00,,,0.00,WUHU216HW,2013-03-26 23:05:00,
2013-03-26 16:10:00,75.6,48.2,29.90,NW,306,2.4,6.0,38,0.00,,,0.00,WUHU216HW,2013-03-26 23:10:00,
2013-03-26 16:15:00,75.4,48.7,29.90,NW,304,2.1,3.4,39,0.00,,,0.00,WUHU216HW,2013-03-26 23:15:00,
2013-03-26 16:20:00,75.2,47.8,29.90,WNW,288,1.1,2.5,38,0.00,,,0.00,WUHU216HW,2013-03-26 23:20:00,
2013-03-26 16:25:00,75.2,48.6,29.89,WSW,249,1.0,2.2,39,0.00,,,0.00,WUHU216HW,2013-03-26 23:25:00,
2013-03-26 16:30:00,75.4,49.5,29.89,West,261,1.7,4.0,40,0.00,,,0.00,WUHU216HW,2013-03-26 23:30:00,
2013-03-26 16:35:00,76.0,50.0,29.89,West,266,2.4,4.0,40,0.00,,,0.00,WUHU216HW,2013-03-26 23:35:00,
2013-03-26 16:40:00,76.0,50.0,29.89,WSW,248,1.4,3.1,40,0.00,,,0.00,WUHU216HW,2013-03-26 23:40:00,
2013-03-26 16:45:00,76.0,49.2,29.88,WSW,250,1.6,3.6,39,0.00,,,0.00,WUHU216HW,2013-03-26 23:45:00,
2013-03-26 16:50:00,76.0,50.0,29.88,WNW,300,2.9,7.6,40,0.00,,,0.00,WUHU216HW,2013-03-26 23:50:00,
2013-03-26 16:55:00,76.0,50.0,29.88,WNW,287,3.7,6.9,40,0.00,,,0.00,WUHU216HW,2013-03-26 23:55:00,
2013-03-26 17:00:00,76.1,48.6,29.88,NW,304,3.7,4.3,38,0.00,,,0.00,WUHU216HW,2013-03-27 00:00:00,
2013-03-26 17:05:00,76.0,49.2,29.88,WNW,289,1.8,4.5,39,0.00,,,0.00,WUHU216HW,2013-03-27 00:05:00,
2013-03-26 17:10:00,75.8,49.1,29.88,NW,304,1.5,3.1,39,0.00,,,0.00,WUHU216HW,2013-03-27 00:10:00,
2013-03-26 17:15:00,75.8,49.1,29.88,WNW,283,2.5,5.4,39,0.00,,,0.00,WUHU216HW,2013-03-27 00:15:00,
2013-03-26 17:20:00,76.3,48.1,29.87,SW,227,1.5,3.8,37,0.00,,,0.00,WUHU216HW,2013-03-27 00:20:00,
2013-03-26 17:25:00,76.0,47.0,29.88,NW,311,2.0,5.4,36,0.00,,,0.00,WUHU216HW,2013-03-27 00:25:00,
2013-03-26 17:30:00,75.6,47.3,29.88,NNW,331,1.2,2.5,37,0.00,,,0.00,WUHU216HW,2013-03-27 00:30:00,
2013-03-26 17:35:00,75.4,45.7,29.87,NNW,339,1.3,2.9,35,0.00,,,0.00,WUHU216HW,2013-03-27 00:35:00,
2013-03-26 17:40:00,75.2,45.5,29.87,NW,324,1.1,1.8,35,0.00,,,0.00,WUHU216HW,2013-03-27 00:40:00,
2013-03-26 17:45:00,75.1,45.4,29.87,NNW,341,1.5,4.3,35,0.00,,,0.00,WUHU216HW,2013-03-27 00:45:00,
2013-03-26 17:50:00,74.9,46.0,29.87,NW,316,1.5,3.8,36,0.00,,,0.00,WUHU216HW,2013-03-27 00:50:00,
2013-03-26 17:55:00,74.9,46.7,29.87,NW,318,1.6,3.1,37,0.00,,,0.00,WUHU216HW,2013-03-27 00:55:00,
2013-03-26 18:00:00,74.7,46.5,29.87,NW,320,1.9,3.4,37,0.00,,,0.00,WUHU216HW,2013-03-27 01:00:00,
2013-03-26 18:05:00,74.7,46.5,29.87,NW,314,2.1,3.6,37,0.00,,,0.00,WUHU216HW,2013-03-27 01:05:00,
2013-03-26 18:10:00,74.2,46.1,29.87,NW,317,1.6,3.4,37,0.00,,,0.00,WUHU216HW,2013-03-27 01:10:00,
2013-03-26 18:15:00,73.8,46.5,29.87,NW,315,3.0,4.0,38,0.00,,,0.00,WUHU216HW,2013-03-27 01:15:00,
2013-03-26 18:20:00,73.4,46.2,29.87,NW,313,2.2,3.4,38,0.00,,,0.00,WUHU216HW,2013-03-27 01:20:00,
2013-03-26 18:25:00,73.3,46.0,29.87,NW,309,2.1,2.9,38,0.00,,,0.00,WUHU216HW,2013-03-27 01:25:00,
2013-03-26 18:30:00,73.1,45.9,29.88,NW,312,2.8,4.7,38,0.00,,,0.00,WUHU216HW,2013-03-27 01:30:00,
2013-03-26 18:35:00,72.9,45.7,29.88,WNW,303,1.9,2.5,38,0.00,,,0.00,WUHU216HW,2013-03-27 01:35:00,
2013-03-26 18:40:00,72.5,46.2,29.88,NW,308,1.7,2.9,39,0.00,,,0.00,WUHU216HW,2013-03-27 01:40:00,
2013-03-26 18:45:00,72.0,46.5,29.88,NW,312,1.5,2.0,40,0.00,,,0.00,WUHU216HW,2013-03-27 01:45:00,
2013-03-26 18:50:00,71.5,45.9,29.88,NW,311,1.2,2.0,40,0.00,,,0.00,WUHU216HW,2013-03-27 01:50:00,
2013-03-26 18:55:00,71.1,46.2,29.88,NW,314,0.9,1.3,41,0.00,,,0.00,WUHU216HW,2013-03-27 01:55:00,
2013-03-26 19:00:00,70.9,46.0,29.88,NW,315,0.5,0.9,41,0.00,,,0.00,WUHU216HW,2013-03-27 02:00:00,
2013-03-26 19:05:00,70.4,46.2,29.88,NW,315,0.3,0.4,42,0.00,,,0.00,WUHU216HW,2013-03-27 02:05:00,
2013-03-26 19:10:00,70.0,47.0,29.88,North,0,0.0,0.0,44,0.00,,,0.00,WUHU216HW,2013-03-27 02:10:00,
2013-03-26 19:15:00,69.7,46.7,29.88,North,0,0.0,0.0,44,0.00,,,0.00,WUHU216HW,2013-03-27 02:15:00,
2013-03-26 19:20:00,69.5,47.1,29.88,North,0,0.0,0.0,45,0.00,,,0.00,WUHU216HW,2013-03-27 02:20:00,
2013-03-26 19:25:00,68.9,47.3,29.88,North,0,0.0,0.0,46,0.00,,,0.00,WUHU216HW,2013-03-27 02:25:00,
2013-03-26 19:30:00,68.0,46.5,29.88,North,0,0.0,0.0,46,0.00,,,0.00,WUHU216HW,2013-03-27 02:30:00,
2013-03-26 19:35:00,67.1,45.6,29.88,North,0,0.0,0.0,46,0.00,,,0.00,WUHU216HW,2013-03-27 02:35:00,
2013-03-26 19:40:00,66.4,45.5,29.88,North,0,0.0,0.0,47,0.00,,,0.00,WUHU216HW,2013-03-27 02:40:00,
2013-03-26 19:45:00,65.7,45.5,29.88,North,0,0.0,0.0,48,0.00,,,0.00,WUHU216HW,2013-03-27 02:45:00,
2013-03-26 19:50:00,65.2,45.6,29.89,North,0,0.0,0.0,49,0.00,,,0.00,WUHU216HW,2013-03-27 02:50:00,
2013-03-26 19:55:00,64.6,45.5,29.89,North,0,0.0,0.0,50,0.00,,,0.00,WUHU216HW,2013-03-27 02:55:00,
2013-03-26 20:00:00,64.1,45.6,29.89,North,0,0.0,0.0,51,0.00,,,0.00,WUHU216HW,2013-03-27 03:00:00,
2013-03-26 20:05:00,63.4,45.4,29.89,North,0,0.0,0.0,52,0.00,,,0.00,WUHU216HW,2013-03-27 03:05:00,
2013-03-26 20:10:00,62.6,45.7,29.89,North,0,0.0,0.0,54,0.00,,,0.00,WUHU216HW,2013-03-27 03:10:00,
2013-03-26 20:15:00,62.3,45.8,29.89,North,0,0.0,0.0,55,0.00,,,0.00,WUHU216HW,2013-03-27 03:15:00,
2013-03-26 20:20:00,61.9,45.6,29.89,North,0,0.0,0.0,55,0.00,,,0.00,WUHU216HW,2013-03-27 03:20:00,
2013-03-26 20:25:00,61.7,45.8,29.89,North,0,0.0,0.0,56,0.00,,,0.00,WUHU216HW,2013-03-27 03:25:00,
2013-03-26 20:30:00,61.4,45.6,29.89,North,0,0.0,0.0,56,0.00,,,0.00,WUHU216HW,2013-03-27 03:30:00,
2013-03-26 20:35:00,61.0,45.7,29.90,North,0,0.0,0.0,57,0.00,,,0.00,WUHU216HW,2013-03-27 03:35:00,
2013-03-26 20:40:00,60.8,45.6,29.90,North,0,0.0,0.0,57,0.00,,,0.00,WUHU216HW,2013-03-27 03:40:00,
2013-03-26 20:45:00,60.7,45.8,29.90,North,0,0.0,0.0,58,0.00,,,0.00,WUHU216HW,2013-03-27 03:45:00,
2013-03-26 20:50:00,60.3,46.0,29.90,North,0,0.0,0.0,59,0.00,,,0.00,WUHU216HW,2013-03-27 03:50:00,
2013-03-26 20:55:00,60.1,45.8,29.90,North,0,0.0,0.0,59,0.00,,,0.00,WUHU216HW,2013-03-27 03:55:00,
2013-03-26 21:00:00,59.8,45.9,29.90,North,0,0.0,0.0,60,0.00,,,0.00,WUHU216HW,2013-03-27 04:00:00,
2013-03-26 21:05:00,59.2,45.8,29.90,North,0,0.0,0.0,61,0.00,,,0.00,WUHU216HW,2013-03-27 04:05:00,
2013-03-26 21:10:00,58.7,45.7,29.90,NW,315,0.3,0.4,62,0.00,,,0.00,WUHU216HW,2013-03-27 04:10:00,
2013-03-26 21:15:00,58.3,45.4,29.90,North,0,0.0,0.0,62,0.00,,,0.00,WUHU216HW,2013-03-27 04:15:00,
2013-03-26 21:20:00,58.1,45.6,29.90,North,0,0.0,0.0,63,0.00,,,0.00,WUHU216HW,2013-03-27 04:20:00,
2013-03-26 21:25:00,58.0,45.5,29.91,North,0,0.0,0.0,63,0.00,,,0.00,WUHU216HW,2013-03-27 04:25:00,
2013-03-26 21:30:00,57.8,45.3,29.91,North,0,0.0,0.0,63,0.00,,,0.00,WUHU216HW,2013-03-27 04:30:00,
2013-03-26 21:35:00,57.6,45.5,29.91,North,0,0.0,0.0,64,0.00,,,0.00,WUHU216HW,2013-03-27 04:35:00,
2013-03-26 21:40:00,57.2,46.4,29.91,North,0,0.0,0.0,67,0.00,,,0.00,WUHU216HW,2013-03-27 04:40:00,
2013-03-26 21:45:00,56.5,46.4,29.91,ESE,113,0.3,0.4,69,0.00,,,0.00,WUHU216HW,2013-03-27 04:45:00,
2013-03-26 21:50:00,56.0,45.5,29.91,North,0,0.0,0.0,68,0.00,,,0.00,WUHU216HW,2013-03-27 04:50:00,
2013-03-26 21:55:00,55.8,45.4,29.91,North,0,0.0,0.0,68,0.00,,,0.00,WUHU216HW,2013-03-27 04:55:00,
2013-03-26 22:00:00,55.8,45.4,29.91,North,0,0.0,0.0,68,0.00,,,0.00,WUHU216HW,2013-03-27 05:00:00,
2013-03-26 22:05:00,55.1,46.9,29.91,East,85,0.5,1.1,74,0.00,,,0.00,WUHU216HW,2013-03-27 05:05:00,
2013-03-26 22:10:00,54.5,46.1,29.91,ENE,68,0.3,0.9,73,0.00,,,0.00,WUHU216HW,2013-03-27 05:10:00,
2013-03-26 22:15:00,54.4,45.2,29.91,North,0,0.0,0.0,71,0.00,,,0.00,WUHU216HW,2013-03-27 05:15:00,
2013-03-26 22:20:00,54.5,45.4,29.91,North,0,0.0,0.0,71,0.00,,,0.00,WUHU216HW,2013-03-27 05:20:00,
2013-03-26 22:25:00,54.7,45.2,29.92,North,0,0.0,0.0,70,0.00,,,0.00,WUHU216HW,2013-03-27 05:25:00,
2013-03-26 22:30:00,54.7,45.2,29.92,South,171,0.7,0.9,70,0.00,,,0.00,WUHU216HW,2013-03-27 05:30:00,
2013-03-26 22:35:00,54.7,45.2,29.92,SSW,194,0.5,0.9,70,0.00,,,0.00,WUHU216HW,2013-03-27 05:35:00,
2013-03-26 22:40:00,54.4,45.6,29.92,SSE,164,0.3,0.4,72,0.00,,,0.00,WUHU216HW,2013-03-27 05:40:00,
2013-03-26 22:45:00,54.2,45.4,29.92,SSE,158,0.2,0.2,72,0.00,,,0.00,WUHU216HW,2013-03-27 05:45:00,
2013-03-26 22:50:00,54.0,45.2,29.92,North,0,0.0,0.0,72,0.00,,,0.00,WUHU216HW,2013-03-27 05:50:00,
2013-03-26 22:55:00,53.6,45.5,29.92,East,99,0.2,0.2,74,0.00,,,0.00,WUHU216HW,2013-03-27 05:55:00,
2013-03-26 23:00:00,53.5,46.1,29.92,North,0,0.0,0.0,76,0.00,,,0.00,WUHU216HW,2013-03-27 06:00:00,
2013-03-26 23:05:00,53.6,45.5,29.92,North,0,0.0,0.0,74,0.00,,,0.00,WUHU216HW,2013-03-27 06:05:00,
2013-03-26 23:10:00,54.0,45.9,29.92,North,0,0.0,0.0,74,0.00,,,0.00,WUHU216HW,2013-03-27 06:10:00,
2013-03-26 23:15:00,54.2,45.7,29.92,North,0,0.0,0.0,73,0.00,,,0.00,WUHU216HW,2013-03-27 06:15:00,
2013-03-26 23:20:00,54.2,45.7,29.92,North,0,0.0,0.0,73,0.00,,,0.00,WUHU216HW,2013-03-27 06:20:00,
2013-03-26 23:25:00,54.0,45.9,29.92,North,0,0.0,0.0,74,0.00,,,0.00,WUHU216HW,2013-03-27 06:25:00,
2013-03-26 23:30:00,54.0,45.6,29.92,North,0,0.0,0.0,73,0.00,,,0.00,WUHU216HW,2013-03-27 06:30:00,
2013-03-26 23:35:00,54.0,45.6,29.92,North,0,0.0,0.0,73,0.00,,,0.00,WUHU216HW,2013-03-27 06:35:00,
2013-03-26 23:40:00,54.0,45.6,29.92,NW,315,0.3,0.4,73,0.00,,,0.00,WUHU216HW,2013-03-27 06:40:00,
2013-03-26 23:45:00,54.0,45.9,29.92,North,0,0.0,0.0,74,0.00,,,0.00,WUHU216HW,2013-03-27 06:45:00,
2013-03-26 23:50:00,53.8,47.2,29.92,ENE,60,0.4,0.4,78,0.00,,,0.00,WUHU216HW,2013-03-27 06:50:00,
2013-03-26 23:55:00,53.8,46.1,29.92,North,0,0.0,0.0,75,0.00,,,0.00,WUHU216HW,2013-03-27 06:55:00,